OSOK1: Oswego hwy 160

                                SHEF ID:       OSOK1     Oswego hwy 160
STATION TYPE:

PRECIP STAGE RIV-FLOW VOLTAGE BAT-LOAD
in ft cfs volt volt
Ccp-Rev Ccp-Rev Ccp-Rev Ccp-Rev Ccp-Rev
(America/Chicago)
02/19 00:00 0.00 11.26 1999 12.76 12.50
02/19 01:00 0.00 11.24 1982 12.75 12.48
02/19 02:00 0.00 11.23 1973 12.72 12.46
02/19 03:00 0.00 11.23 1973 12.71 12.44
02/19 04:00 0.00 11.25 1990 12.69 12.42
02/19 05:00 0.00 11.27 2007 12.67 12.40
02/19 06:00 0.00 11.33 2058 12.66 12.37
02/19 07:00 0.00 11.42 2136 12.65 12.37
02/19 08:00 0.00 11.55 2249 12.86 12.48
02/19 09:00 0.00 11.72 2400 14.18 13.49
02/19 10:00 0.00 11.92 2582 14.08 13.34
02/19 11:00 0.00 12.12 2778 14.06 13.23
02/19 12:00 0.00 12.33 2994 13.68 13.15
02/19 13:00 0.00 12.53 3206 13.65 13.07
02/19 14:00 0.00 12.72 3412 13.59 13.09
02/19 15:00 0.00 12.89 3600 13.63 13.05
02/19 16:00 0.00 13.07 3804 13.81 13.05
02/19 17:00 0.00 13.21 3965 13.91 13.13
02/19 18:00 0.00 13.35 4129 13.19 13.00
02/19 19:00 0.00 13.44 4236 12.97 12.75
02/19 20:00 0.00 13.55 4370 12.85 12.61
02/19 21:00 0.00 13.62 4455 12.79 12.53
02/19 22:00 0.00 13.67 4517 12.76 12.50
02/19 23:00 0.00 13.72 4579 12.74 12.48
Data processed at Fri 20Feb2026 05:50 GMT

NOTICE: If you are parsing this page

Please convert to using our Data API. Starting early 2026 we will be migrating to: https://water.usace.army.mil with modern pages rendered in JavaScript. When this migration completes you will no longer be able to scrape this page! CWMSDataAPI (CDA)

Timeseries IDs (TSIDs)

TSIDs used from left to right in the data table
OSWN.Precip-Inc.Total.1Hour.1Hour.Ccp-Rev
OSWN.Stage.Inst.1Hour.0.Ccp-Rev
OSWN.Flow.Inst.1Hour.0.Ccp-Rev
OSWN.Volt-Battery.Inst.1Hour.0.Ccp-Rev
OSWN.Volt-Battery Load.Inst.1Hour.0.Ccp-Rev

                            

All information presented herein is the property of the government of the United States of America and may be revised or deleted at any time without prior notice. Dissemination of this information without the expressed written consent of the Public Affairs Office, Tulsa District U.S. Army Corps of Engineers is strictly prohibited. These data are gathered electronically and, as presented, have NOT undergone any form of quality control. These data are NOT guaranteed to be valid or correct.